createdAt,value
2023-04-07T00:00:24.577Z,9.93
2023-04-07T00:02:51.675Z,9.13
2023-04-07T00:05:18.249Z,9.18
2023-04-07T00:07:55.074Z,8.88
2023-04-07T00:10:23.482Z,8.73
2023-04-07T00:12:49.816Z,8.60
2023-04-07T00:15:16.528Z,8.60
2023-04-07T00:17:42.972Z,9.43
2023-04-07T00:20:09.592Z,7.78
2023-04-07T00:22:35.940Z,8.18
2023-04-07T00:25:02.274Z,8.88
2023-04-07T00:27:28.607Z,8.68
2023-04-07T00:29:55.388Z,9.13
2023-04-07T00:32:22.464Z,8.45
2023-04-07T00:34:48.949Z,8.52
2023-04-07T00:37:15.505Z,8.73
2023-04-07T00:39:41.973Z,9.95
2023-04-07T00:42:08.484Z,10.38
2023-04-07T00:44:34.844Z,10.30
2023-04-07T00:47:01.315Z,11.15
2023-04-07T00:49:28.450Z,11.00
2023-04-07T00:51:56.023Z,11.52
2023-04-07T00:54:23.952Z,11.77
2023-04-07T00:56:51.076Z,11.48
2023-04-07T00:59:17.820Z,12.32
2023-04-07T01:02:17.760Z,12.85
2023-04-07T01:04:51.602Z,13.90
2023-04-07T01:07:26.469Z,14.48
2023-04-07T01:10:09.757Z,15.05
2023-04-07T01:13:15.480Z,13.82
2023-04-07T01:15:45.924Z,14.30
2023-04-07T01:18:22.164Z,14.23
2023-04-07T01:20:51.134Z,14.60
2023-04-07T01:23:50.945Z,15.35
2023-04-07T01:26:20.460Z,14.93
2023-04-07T01:29:03.069Z,15.35
2023-04-07T01:31:30.376Z,14.13
2023-04-07T01:34:00.357Z,15.63
2023-04-07T01:36:31.480Z,15.77
2023-04-07T01:38:59.654Z,14.90
2023-04-07T01:41:26.966Z,15.65
2023-04-07T01:43:55.398Z,16.30
2023-04-07T01:46:23.790Z,16.38
2023-04-07T01:48:51.443Z,15.77
2023-04-07T01:51:19.700Z,16.88
2023-04-07T01:53:47.484Z,15.30
2023-04-07T01:56:14.325Z,16.30
2023-04-07T01:58:41.245Z,14.82
2023-04-07T02:01:10.916Z,14.98
2023-04-07T02:03:57.003Z,14.05
2023-04-07T02:06:32.008Z,14.85
2023-04-07T02:09:04.315Z,15.93
2023-04-07T02:11:32.785Z,14.63
2023-04-07T02:14:04.457Z,14.43
2023-04-07T02:16:36.094Z,14.55
2023-04-07T02:19:03.508Z,14.52
2023-04-07T02:21:30.632Z,13.40
2023-04-07T02:23:57.115Z,13.15
2023-04-07T02:26:23.950Z,11.68
2023-04-07T02:28:50.400Z,12.55
2023-04-07T02:31:17.135Z,12.82
2023-04-07T02:33:43.457Z,11.48
2023-04-07T02:36:09.778Z,11.27
2023-04-07T02:38:36.411Z,12.30
2023-04-07T02:41:04.079Z,11.85
2023-04-07T02:43:30.382Z,12.27
2023-04-07T02:45:56.853Z,11.75
2023-04-07T02:48:23.341Z,11.50
2023-04-07T02:50:49.641Z,10.98
2023-04-07T02:53:16.046Z,11.15
2023-04-07T02:55:42.407Z,9.88
2023-04-07T02:58:08.939Z,10.10
2023-04-07T03:00:40.260Z,10.60
2023-04-07T03:03:10.923Z,10.23
2023-04-07T03:05:40.244Z,9.90
2023-04-07T03:08:09.539Z,10.18
2023-04-07T03:10:36.806Z,9.73
2023-04-07T03:13:03.305Z,10.77
2023-04-07T03:15:31.107Z,10.35
2023-04-07T03:17:57.502Z,10.45
2023-04-07T03:20:23.877Z,10.15
2023-04-07T03:22:50.223Z,10.75
2023-04-07T03:25:27.415Z,9.88
2023-04-07T03:27:54.618Z,10.38
2023-04-07T03:30:21.568Z,10.02
2023-04-07T03:32:48.136Z,11.38
2023-04-07T03:35:15.197Z,11.25
2023-04-07T03:37:43.936Z,11.95
2023-04-07T03:40:14.776Z,8.00
2023-04-07T03:42:41.381Z,11.50
2023-04-07T03:45:10.388Z,11.50
2023-04-07T03:47:41.977Z,11.60
2023-04-07T03:50:09.354Z,12.38
2023-04-07T03:52:45.452Z,12.05
2023-04-07T03:55:22.260Z,11.52
2023-04-07T03:57:51.343Z,12.05
2023-04-07T04:00:18.094Z,12.70
2023-04-07T04:02:54.017Z,11.98
2023-04-07T04:05:20.442Z,13.18
2023-04-07T04:07:47.379Z,12.48
2023-04-07T04:10:14.158Z,11.60
2023-04-07T04:12:43.289Z,11.23
2023-04-07T04:15:12.429Z,12.27
2023-04-07T04:17:39.688Z,11.27
2023-04-07T04:20:08.347Z,11.32
2023-04-07T04:22:42.776Z,12.18
2023-04-07T04:25:09.871Z,12.25
2023-04-07T04:27:36.687Z,12.20
2023-04-07T04:30:14.241Z,10.60
2023-04-07T04:32:49.538Z,11.60
2023-04-07T04:35:19.031Z,10.68
2023-04-07T04:37:57.742Z,11.25
2023-04-07T04:40:24.208Z,10.93
2023-04-07T04:42:51.338Z,10.70
2023-04-07T04:45:20.325Z,10.85
2023-04-07T04:47:48.282Z,10.85
2023-04-07T04:50:16.160Z,10.68
2023-04-07T04:52:44.961Z,10.80
2023-04-07T04:55:18.889Z,11.00
2023-04-07T04:57:46.341Z,10.98
2023-04-07T05:02:46.980Z,10.80
2023-04-07T05:05:15.367Z,10.73
2023-04-07T05:07:43.149Z,10.57
2023-04-07T05:10:12.629Z,10.60
2023-04-07T05:12:45.863Z,10.60
2023-04-07T05:15:12.325Z,10.40
2023-04-07T05:17:38.797Z,10.32
2023-04-07T05:20:07.175Z,11.45
2023-04-07T05:22:37.209Z,10.45
2023-04-07T05:25:05.764Z,11.07
2023-04-07T05:27:32.918Z,10.40
2023-04-07T05:30:03.277Z,11.73
2023-04-07T05:32:33.533Z,12.23
2023-04-07T05:35:06.615Z,11.40
2023-04-07T05:37:36.050Z,11.43
2023-04-07T05:40:04.908Z,11.13
2023-04-07T05:42:31.292Z,12.20
2023-04-07T05:44:58.217Z,11.52
2023-04-07T05:47:26.563Z,11.10
2023-04-07T05:49:54.072Z,11.55
2023-04-07T05:52:20.851Z,11.45
2023-04-07T05:54:53.705Z,11.85
2023-04-07T05:57:21.272Z,11.93
2023-04-07T05:59:48.550Z,11.98
2023-04-07T06:02:15.089Z,12.38
2023-04-07T06:04:43.997Z,11.63
2023-04-07T06:07:15.043Z,12.48
2023-04-07T06:09:42.910Z,11.80
2023-04-07T06:12:10.680Z,12.13
2023-04-07T06:14:37.116Z,12.73
2023-04-07T06:17:03.612Z,13.50
2023-04-07T06:19:30.015Z,11.23
2023-04-07T06:21:56.319Z,12.50
2023-04-07T06:24:25.014Z,12.70
2023-04-07T06:26:54.714Z,12.70
2023-04-07T06:29:21.141Z,12.30
2023-04-07T06:31:47.474Z,12.35
2023-04-07T06:34:13.769Z,12.25
2023-04-07T06:36:40.161Z,13.60
2023-04-07T06:39:06.627Z,11.75
2023-04-07T06:41:32.966Z,12.60
2023-04-07T06:43:59.325Z,13.77
2023-04-07T06:46:26.658Z,13.20
2023-04-07T06:48:53.110Z,12.00
2023-04-07T06:51:19.414Z,12.82
2023-04-07T06:53:47.392Z,13.98
2023-04-07T06:56:14.296Z,12.82
2023-04-07T06:58:40.635Z,12.70
2023-04-07T07:01:07.078Z,12.57
2023-04-07T07:03:33.772Z,12.18
2023-04-07T07:06:01.121Z,13.57
2023-04-07T07:08:29.122Z,12.75
2023-04-07T07:10:56.021Z,13.32
2023-04-07T07:13:24.106Z,13.75
2023-04-07T07:15:51.269Z,14.90
2023-04-07T07:18:18.546Z,14.55
2023-04-07T07:20:45.856Z,16.58
2023-04-07T07:23:12.511Z,12.68
2023-04-07T07:25:39.122Z,14.23
2023-04-07T07:28:05.563Z,13.07
2023-04-07T07:30:31.959Z,12.43
2023-04-07T07:32:58.438Z,14.52
2023-04-07T07:35:25.341Z,13.07
2023-04-07T07:37:52.535Z,14.75
2023-04-07T07:40:18.956Z,14.55
2023-04-07T07:42:46.127Z,15.48
2023-04-07T07:45:13.798Z,14.27
2023-04-07T07:47:40.948Z,15.88
2023-04-07T07:50:07.499Z,15.85
2023-04-07T07:52:33.839Z,18.33
2023-04-07T07:55:00.183Z,17.02
2023-04-07T07:57:26.520Z,17.67
2023-04-07T07:59:53.390Z,18.00
2023-04-07T08:02:19.766Z,15.52
2023-04-07T08:04:46.248Z,16.13
2023-04-07T08:07:12.658Z,16.10
2023-04-07T08:09:39.217Z,19.10
2023-04-07T08:12:05.525Z,22.88
2023-04-07T08:14:31.909Z,23.10
2023-04-07T08:16:58.206Z,21.13
2023-04-07T08:19:24.676Z,16.90
2023-04-07T08:21:51.011Z,16.40
2023-04-07T08:24:18.331Z,20.23
2023-04-07T08:26:45.650Z,18.52
2023-04-07T08:29:12.090Z,15.88
2023-04-07T08:31:38.495Z,16.52
2023-04-07T08:34:04.885Z,17.40
2023-04-07T08:36:31.386Z,19.55
2023-04-07T08:38:58.853Z,18.42
2023-04-07T08:41:33.193Z,21.17
2023-04-07T08:44:01.742Z,19.48
2023-04-07T08:46:30.252Z,17.77
2023-04-07T08:48:57.616Z,18.67
2023-04-07T08:51:29.017Z,16.55
2023-04-07T08:54:05.107Z,18.10
2023-04-07T08:56:33.985Z,17.92
2023-04-07T08:59:02.530Z,19.50
2023-04-07T09:01:29.536Z,18.92
2023-04-07T09:03:58.080Z,20.65
2023-04-07T09:06:25.027Z,20.48
2023-04-07T09:08:51.327Z,21.10
2023-04-07T09:11:17.696Z,19.90
2023-04-07T09:13:44.085Z,19.17
2023-04-07T09:16:10.976Z,17.83
2023-04-07T09:18:37.568Z,18.60
2023-04-07T09:21:05.357Z,18.85
2023-04-07T09:23:34.490Z,18.60
2023-04-07T09:26:20.155Z,15.98
2023-04-07T09:28:48.819Z,16.50
2023-04-07T09:31:15.326Z,17.60
2023-04-07T09:33:41.679Z,16.55
2023-04-07T09:36:08.163Z,17.10
2023-04-07T09:38:39.426Z,15.50
2023-04-07T09:43:37.965Z,16.10
2023-04-07T09:46:11.492Z,14.38
2023-04-07T09:48:38.936Z,17.05
2023-04-07T09:51:07.750Z,17.42
2023-04-07T09:53:50.773Z,18.38
2023-04-07T09:56:18.795Z,18.95
2023-04-07T09:58:46.841Z,18.45
2023-04-07T10:01:14.969Z,18.05
2023-04-07T10:03:41.387Z,16.67
2023-04-07T10:06:07.830Z,17.77
2023-04-07T10:08:40.558Z,17.50
2023-04-07T10:11:07.245Z,16.05
2023-04-07T10:13:36.365Z,15.52
2023-04-07T10:16:07.201Z,14.85
2023-04-07T10:18:35.418Z,16.42
2023-04-07T10:21:04.359Z,16.58
2023-04-07T10:23:43.768Z,17.20
2023-04-07T10:26:11.546Z,16.58
2023-04-07T10:28:41.347Z,17.23
2023-04-07T10:31:08.243Z,16.35
2023-04-07T10:33:49.911Z,15.32
2023-04-07T10:36:21.972Z,16.08
2023-04-07T10:39:06.644Z,15.30
2023-04-07T10:41:37.042Z,15.75
2023-04-07T10:44:07.939Z,15.50
2023-04-07T10:46:47.036Z,13.73
2023-04-07T10:49:14.424Z,13.45
2023-04-07T10:51:42.575Z,13.60
2023-04-07T10:54:22.843Z,13.40
2023-04-07T10:57:10.825Z,12.18
2023-04-07T10:59:39.828Z,10.23
2023-04-07T11:02:12.133Z,11.13
2023-04-07T11:04:40.646Z,12.38
2023-04-07T11:07:07.287Z,66.97
2023-04-07T11:09:33.712Z,16.52
2023-04-07T11:12:00.154Z,11.43
2023-04-07T11:14:28.012Z,11.50
2023-04-07T11:16:54.618Z,11.60
2023-04-07T11:19:21.219Z,10.93
2023-04-07T11:21:47.733Z,11.07
2023-04-07T11:24:39.243Z,12.18
2023-04-07T11:27:06.700Z,34.97
2023-04-07T11:29:34.592Z,19.42
2023-04-07T11:32:02.569Z,15.35
2023-04-07T11:34:30.260Z,10.38
2023-04-07T11:36:59.583Z,9.00
2023-04-07T11:39:31.276Z,21.83
2023-04-07T11:41:57.569Z,9.90
2023-04-07T11:44:26.191Z,9.13
2023-04-07T11:46:56.992Z,10.88
2023-04-07T11:49:25.821Z,11.85
2023-04-07T11:52:07.097Z,8.18
2023-04-07T11:57:12.503Z,68.72
2023-04-07T11:59:40.712Z,53.85
2023-04-07T12:02:08.191Z,16.10
2023-04-07T12:04:36.542Z,10.20
2023-04-07T12:07:10.746Z,10.18
2023-04-07T12:09:37.871Z,9.45
2023-04-07T12:12:06.336Z,14.20
2023-04-07T12:14:32.860Z,21.90
2023-04-07T12:17:01.486Z,18.58
2023-04-07T12:19:29.332Z,15.05
2023-04-07T12:21:56.772Z,12.43
2023-04-07T12:24:23.726Z,15.10
2023-04-07T12:26:50.119Z,15.50
2023-04-07T12:29:17.043Z,14.77
2023-04-07T12:31:43.728Z,12.65
2023-04-07T12:34:10.076Z,11.23
2023-04-07T12:36:36.447Z,10.30
2023-04-07T12:39:02.830Z,10.43
2023-04-07T12:41:29.142Z,10.52
2023-04-07T12:43:55.511Z,10.85
2023-04-07T12:46:21.931Z,11.55
2023-04-07T12:48:48.358Z,11.02
2023-04-07T12:51:14.918Z,11.20
2023-04-07T12:53:41.380Z,9.80
2023-04-07T12:56:07.920Z,8.77
2023-04-07T12:58:34.374Z,7.35
2023-04-07T13:01:00.848Z,6.03
2023-04-07T13:03:27.456Z,7.00
2023-04-07T13:05:55.277Z,5.50
2023-04-07T13:08:21.964Z,5.85
2023-04-07T13:10:48.319Z,9.10
2023-04-07T13:13:14.906Z,5.45
2023-04-07T13:15:41.254Z,4.18
2023-04-07T13:18:08.102Z,5.60
2023-04-07T13:20:34.534Z,5.30
2023-04-07T13:23:06.880Z,8.35
2023-04-07T13:25:36.170Z,25.42
2023-04-07T13:28:02.530Z,70.30
2023-04-07T13:30:28.982Z,22.40
2023-04-07T13:32:55.583Z,4.68
2023-04-07T13:35:21.948Z,3.00
2023-04-07T13:37:48.357Z,2.67
2023-04-07T13:40:14.709Z,3.35
2023-04-07T13:42:41.090Z,5.63
2023-04-07T13:45:07.875Z,16.60
2023-04-07T13:47:35.182Z,8.07
2023-04-07T13:50:02.533Z,6.30
2023-04-07T13:52:28.962Z,13.45
2023-04-07T13:54:55.336Z,6.40
2023-04-07T13:57:21.835Z,30.77
2023-04-07T13:59:49.640Z,12.02
2023-04-07T14:02:16.671Z,7.18
2023-04-07T14:04:43.305Z,4.15
2023-04-07T14:07:09.691Z,4.47
2023-04-07T14:09:36.408Z,3.83
2023-04-07T14:12:02.698Z,2.65
2023-04-07T14:14:29.418Z,15.45
2023-04-07T14:16:55.752Z,8.15
2023-04-07T14:19:24.947Z,5.90
2023-04-07T14:21:51.567Z,4.03
2023-04-07T14:24:18.040Z,2.90
2023-04-07T14:26:45.379Z,2.97
2023-04-07T14:29:14.966Z,2.78
2023-04-07T14:31:41.350Z,3.10
2023-04-07T14:34:08.199Z,2.80
2023-04-07T14:36:34.669Z,2.25
2023-04-07T14:39:01.153Z,2.47
2023-04-07T14:41:27.828Z,1.88
2023-04-07T14:43:57.380Z,1.70
2023-04-07T14:46:23.910Z,1.58
2023-04-07T14:48:54.087Z,1.45
2023-04-07T14:51:21.314Z,1.50
2023-04-07T14:53:53.208Z,1.35
2023-04-07T14:56:21.130Z,1.80
2023-04-07T14:58:47.412Z,2.10
2023-04-07T15:01:13.756Z,1.65
2023-04-07T15:03:40.277Z,2.03
2023-04-07T15:06:08.683Z,1.23
2023-04-07T15:08:35.405Z,1.20
2023-04-07T15:11:04.622Z,0.95
2023-04-07T15:13:30.996Z,0.95
2023-04-07T15:16:14.772Z,1.02
2023-04-07T15:18:44.314Z,2.72
2023-04-07T15:21:11.969Z,2.13
2023-04-07T15:23:39.032Z,1.70
2023-04-07T15:26:05.962Z,3.60
2023-04-07T15:28:32.346Z,3.10
2023-04-07T15:30:59.377Z,11.63
2023-04-07T15:33:25.826Z,11.20
2023-04-07T15:35:52.138Z,7.35
2023-04-07T15:38:18.597Z,4.28
2023-04-07T15:40:44.890Z,3.08
2023-04-07T15:43:11.365Z,1.90
2023-04-07T15:45:42.732Z,1.67
2023-04-07T15:48:10.165Z,1.35
2023-04-07T15:50:37.054Z,0.93
2023-04-07T15:53:06.826Z,1.08
2023-04-07T15:55:36.699Z,1.20
2023-04-07T15:58:03.527Z,1.38
2023-04-07T16:00:33.228Z,1.35
2023-04-07T16:03:01.918Z,1.48
2023-04-07T16:05:28.371Z,1.20
2023-04-07T16:07:54.692Z,1.13
2023-04-07T16:10:21.100Z,1.10
2023-04-07T16:12:48.245Z,1.52
2023-04-07T16:15:20.528Z,1.48
2023-04-07T16:17:52.844Z,1.70
2023-04-07T16:20:19.272Z,1.70
2023-04-07T16:22:47.979Z,1.73
2023-04-07T16:25:15.908Z,1.50
2023-04-07T16:27:42.419Z,1.40
2023-04-07T16:30:09.189Z,1.77
2023-04-07T16:32:35.568Z,2.53
2023-04-07T16:35:02.654Z,1.92
2023-04-07T16:37:30.192Z,2.67
2023-04-07T16:39:59.618Z,2.53
2023-04-07T16:42:28.521Z,2.72
2023-04-07T16:44:57.520Z,3.33
2023-04-07T16:47:24.661Z,3.25
2023-04-07T16:49:51.172Z,3.90
2023-04-07T16:52:20.460Z,2.85
2023-04-07T16:54:47.044Z,1.60
2023-04-07T16:57:13.536Z,1.90
2023-04-07T16:59:40.029Z,1.63
2023-04-07T17:02:11.600Z,2.22
2023-04-07T17:04:38.962Z,2.08
2023-04-07T17:07:05.958Z,1.67
2023-04-07T17:09:33.079Z,1.30
2023-04-07T17:12:01.126Z,1.35
2023-04-07T17:14:28.467Z,1.58
2023-04-07T17:16:54.762Z,1.67
2023-04-07T17:19:21.262Z,1.75
2023-04-07T17:21:47.873Z,4.85
2023-04-07T17:24:15.794Z,30.70
2023-04-07T17:26:48.726Z,21.90
2023-04-07T17:29:16.284Z,13.48
2023-04-07T17:31:43.125Z,6.13
2023-04-07T17:34:10.486Z,3.13
2023-04-07T17:36:37.549Z,3.28
2023-04-07T17:39:05.147Z,3.10
2023-04-07T17:41:34.349Z,3.08
2023-04-07T17:44:01.257Z,3.17
2023-04-07T17:46:27.831Z,2.90
2023-04-07T17:48:54.982Z,21.52
2023-04-07T17:51:21.542Z,95.25
2023-04-07T17:53:48.516Z,39.22
2023-04-07T17:56:15.176Z,14.80
2023-04-07T17:58:41.695Z,12.13
2023-04-07T18:01:10.447Z,11.18
2023-04-07T18:03:36.902Z,10.48
2023-04-07T18:06:04.390Z,9.68
2023-04-07T18:08:31.514Z,8.07
2023-04-07T18:10:57.902Z,9.02
2023-04-07T18:13:24.260Z,10.05
2023-04-07T18:15:50.725Z,10.40
2023-04-07T18:18:17.170Z,11.85
2023-04-07T18:20:43.500Z,12.40
2023-04-07T18:23:10.493Z,12.82
2023-04-07T18:25:36.875Z,11.40
2023-04-07T18:28:03.856Z,12.35
2023-04-07T18:30:30.258Z,12.45
2023-04-07T18:32:56.580Z,16.10
2023-04-07T18:35:23.048Z,13.18
2023-04-07T18:37:49.605Z,16.17
2023-04-07T18:40:16.238Z,22.85
2023-04-07T18:42:42.656Z,17.33
2023-04-07T18:45:09.286Z,11.07
2023-04-07T18:47:35.672Z,6.45
2023-04-07T18:50:02.033Z,4.70
2023-04-07T18:52:28.356Z,4.35
2023-04-07T18:54:54.682Z,5.20
2023-04-07T18:57:21.211Z,5.35
2023-04-07T18:59:47.513Z,5.45
2023-04-07T19:02:13.969Z,5.57
2023-04-07T19:04:40.561Z,7.20
2023-04-07T19:07:06.914Z,7.50
2023-04-07T19:09:33.258Z,6.75
2023-04-07T19:11:59.669Z,7.05
2023-04-07T19:14:26.092Z,7.70
2023-04-07T19:16:52.637Z,9.45
2023-04-07T19:19:19.040Z,8.85
2023-04-07T19:21:45.847Z,9.23
2023-04-07T19:24:12.165Z,9.52
2023-04-07T19:26:38.547Z,10.18
2023-04-07T19:29:05.009Z,10.57
2023-04-07T19:31:31.456Z,10.68
2023-04-07T19:33:58.438Z,10.50
2023-04-07T19:36:26.411Z,11.00
2023-04-07T19:38:52.886Z,10.93
2023-04-07T19:41:19.265Z,10.80
2023-04-07T19:43:45.596Z,12.07
2023-04-07T19:46:12.005Z,12.98
2023-04-07T19:48:38.432Z,15.60
2023-04-07T19:51:07.111Z,14.30
2023-04-07T19:53:33.809Z,9.85
2023-04-07T19:56:01.712Z,10.10
2023-04-07T19:58:28.210Z,9.82
2023-04-07T20:00:54.985Z,9.65
2023-04-07T20:03:21.998Z,9.63
2023-04-07T20:05:49.556Z,11.10
2023-04-07T20:08:16.325Z,10.88
2023-04-07T20:10:42.624Z,10.63
2023-04-07T20:13:09.524Z,12.18
2023-04-07T20:15:36.103Z,12.30
2023-04-07T20:18:02.696Z,11.75
2023-04-07T20:20:29.246Z,11.02
2023-04-07T20:22:56.103Z,15.65
2023-04-07T20:25:22.568Z,18.85
2023-04-07T20:27:49.948Z,14.48
2023-04-07T20:30:16.377Z,11.95
2023-04-07T20:32:43.408Z,11.25
2023-04-07T20:35:10.719Z,10.85
2023-04-07T20:37:37.027Z,12.25
2023-04-07T20:40:03.941Z,11.60
2023-04-07T20:42:30.323Z,11.40
2023-04-07T20:45:03.329Z,12.93
2023-04-07T20:47:31.004Z,13.70
2023-04-07T20:49:57.421Z,16.58
2023-04-07T20:52:25.818Z,26.00
2023-04-07T20:54:52.216Z,29.73
2023-04-07T20:57:18.564Z,30.50
2023-04-07T20:59:44.884Z,36.05
2023-04-07T21:02:11.614Z,47.08
2023-04-07T21:04:38.208Z,35.13
2023-04-07T21:07:04.508Z,32.92
2023-04-07T21:09:31.170Z,34.17
2023-04-07T21:11:57.500Z,52.75
2023-04-07T21:14:23.826Z,47.28
2023-04-07T21:16:50.259Z,34.10
2023-04-07T21:19:16.559Z,23.80
2023-04-07T21:21:42.868Z,19.38
2023-04-07T21:24:09.182Z,17.65
2023-04-07T21:26:35.965Z,16.30
2023-04-07T21:29:02.246Z,15.85
2023-04-07T21:31:28.587Z,18.30
2023-04-07T21:33:54.929Z,16.33
2023-04-07T21:36:21.255Z,17.73
2023-04-07T21:38:47.973Z,19.33
2023-04-07T21:41:14.491Z,17.98
2023-04-07T21:43:40.904Z,16.23
2023-04-07T21:46:07.311Z,16.42
2023-04-07T21:48:34.691Z,15.75
2023-04-07T21:51:01.383Z,16.73
2023-04-07T21:53:27.741Z,16.45
2023-04-07T21:55:54.019Z,15.20
2023-04-07T21:58:20.500Z,14.23
2023-04-07T22:00:47.571Z,15.38
2023-04-07T22:03:14.810Z,16.73
2023-04-07T22:05:41.225Z,20.25
2023-04-07T22:08:07.553Z,21.67
2023-04-07T22:10:33.894Z,22.65
2023-04-07T22:13:00.193Z,29.75
2023-04-07T22:15:26.519Z,19.27
2023-04-07T22:17:52.919Z,21.45
2023-04-07T22:20:19.338Z,16.27
2023-04-07T22:22:46.427Z,16.00
2023-04-07T22:25:12.742Z,17.13
2023-04-07T22:27:39.065Z,15.40
2023-04-07T22:30:09.650Z,15.35
2023-04-07T22:32:36.417Z,17.75
2023-04-07T22:35:02.803Z,19.40
2023-04-07T22:37:29.227Z,19.50
2023-04-07T22:39:55.741Z,18.33
2023-04-07T22:42:22.089Z,18.25
2023-04-07T22:44:48.416Z,16.58
2023-04-07T22:47:14.716Z,13.95
2023-04-07T22:49:41.905Z,13.20
2023-04-07T22:52:08.200Z,12.70
2023-04-07T22:54:34.520Z,14.60
2023-04-07T22:57:01.987Z,13.68
2023-04-07T22:59:28.312Z,14.27
2023-04-07T23:01:57.135Z,13.55
2023-04-07T23:04:24.421Z,13.63
2023-04-07T23:06:50.726Z,15.82
2023-04-07T23:09:17.115Z,16.05
2023-04-07T23:11:45.818Z,16.30
2023-04-07T23:14:12.123Z,18.10
2023-04-07T23:16:38.489Z,16.50
2023-04-07T23:19:04.829Z,18.85
2023-04-07T23:21:32.049Z,20.00
2023-04-07T23:23:58.542Z,19.45
2023-04-07T23:26:24.863Z,19.58
2023-04-07T23:28:51.558Z,17.60
2023-04-07T23:31:18.100Z,18.55
2023-04-07T23:33:44.441Z,19.38
2023-04-07T23:36:11.778Z,18.80
2023-04-07T23:38:39.468Z,18.13
2023-04-07T23:41:06.863Z,19.55
2023-04-07T23:43:33.472Z,19.38
2023-04-07T23:46:00.333Z,21.58
2023-04-07T23:48:27.086Z,24.00
2023-04-07T23:50:53.810Z,26.42
2023-04-07T23:53:20.131Z,27.83
2023-04-07T23:55:46.490Z,25.23
2023-04-07T23:58:12.763Z,23.52
